sensor_id;sensor_type;location;lat;lon;timestamp;P1;durP1;ratioP1;P2;durP2;ratioP2
7375;SDS011;3728;42.266;24.944;2023-09-19T00:00:48;3.07;;;2.40;;
7375;SDS011;3728;42.266;24.944;2023-09-19T00:03:17;3.30;;;2.80;;
7375;SDS011;3728;42.266;24.944;2023-09-19T00:05:45;4.70;;;3.00;;
7375;SDS011;3728;42.266;24.944;2023-09-19T00:08:14;3.60;;;2.87;;
7375;SDS011;3728;42.266;24.944;2023-09-19T00:10:42;12.70;;;3.40;;
7375;SDS011;3728;42.266;24.944;2023-09-19T00:13:10;12.07;;;3.20;;
7375;SDS011;3728;42.266;24.944;2023-09-19T00:15:43;8.00;;;2.80;;
7375;SDS011;3728;42.266;24.944;2023-09-19T00:18:16;5.40;;;3.17;;
7375;SDS011;3728;42.266;24.944;2023-09-19T00:20:49;9.40;;;2.90;;
7375;SDS011;3728;42.266;24.944;2023-09-19T00:23:19;6.83;;;3.83;;
7375;SDS011;3728;42.266;24.944;2023-09-19T00:25:47;8.67;;;3.37;;
7375;SDS011;3728;42.266;24.944;2023-09-19T00:28:17;5.97;;;3.23;;
7375;SDS011;3728;42.266;24.944;2023-09-19T00:30:46;6.07;;;3.33;;
7375;SDS011;3728;42.266;24.944;2023-09-19T00:33:18;6.37;;;3.07;;
7375;SDS011;3728;42.266;24.944;2023-09-19T00:35:47;5.73;;;3.00;;
7375;SDS011;3728;42.266;24.944;2023-09-19T00:38:19;3.47;;;2.43;;
7375;SDS011;3728;42.266;24.944;2023-09-19T00:40:53;3.43;;;2.90;;
7375;SDS011;3728;42.266;24.944;2023-09-19T00:43:26;6.43;;;2.80;;
7375;SDS011;3728;42.266;24.944;2023-09-19T00:45:55;7.63;;;3.00;;
7375;SDS011;3728;42.266;24.944;2023-09-19T00:48:25;7.80;;;4.30;;
7375;SDS011;3728;42.266;24.944;2023-09-19T00:50:57;8.47;;;3.47;;
7375;SDS011;3728;42.266;24.944;2023-09-19T00:53:31;4.93;;;3.57;;
7375;SDS011;3728;42.266;24.944;2023-09-19T00:56:01;5.33;;;3.40;;
7375;SDS011;3728;42.266;24.944;2023-09-19T00:58:34;3.77;;;3.17;;
7375;SDS011;3728;42.266;24.944;2023-09-19T01:01:03;3.60;;;3.30;;
7375;SDS011;3728;42.266;24.944;2023-09-19T01:03:35;4.93;;;3.50;;
7375;SDS011;3728;42.266;24.944;2023-09-19T01:06:05;5.33;;;3.70;;
7375;SDS011;3728;42.266;24.944;2023-09-19T01:08:34;4.33;;;3.47;;
7375;SDS011;3728;42.266;24.944;2023-09-19T01:11:14;3.97;;;3.57;;
7375;SDS011;3728;42.266;24.944;2023-09-19T01:14:02;5.17;;;3.67;;
7375;SDS011;3728;42.266;24.944;2023-09-19T01:17:00;5.03;;;4.03;;
7375;SDS011;3728;42.266;24.944;2023-09-19T01:25:19;5.67;;;3.80;;
7375;SDS011;3728;42.266;24.944;2023-09-19T01:30:57;5.87;;;4.43;;
7375;SDS011;3728;42.266;24.944;2023-09-19T01:33:28;7.47;;;4.00;;
7375;SDS011;3728;42.266;24.944;2023-09-19T01:36:14;5.60;;;4.30;;
7375;SDS011;3728;42.266;24.944;2023-09-19T01:38:42;5.83;;;4.40;;
7375;SDS011;3728;42.266;24.944;2023-09-19T01:41:11;8.37;;;4.63;;
7375;SDS011;3728;42.266;24.944;2023-09-19T01:43:46;5.60;;;4.70;;
7375;SDS011;3728;42.266;24.944;2023-09-19T01:46:24;8.47;;;4.50;;
7375;SDS011;3728;42.266;24.944;2023-09-19T01:54:41;7.17;;;4.50;;
7375;SDS011;3728;42.266;24.944;2023-09-19T01:57:26;6.33;;;4.50;;
7375;SDS011;3728;42.266;24.944;2023-09-19T02:00:08;7.80;;;4.70;;
7375;SDS011;3728;42.266;24.944;2023-09-19T02:02:40;7.47;;;4.63;;
7375;SDS011;3728;42.266;24.944;2023-09-19T02:05:12;8.60;;;4.87;;
7375;SDS011;3728;42.266;24.944;2023-09-19T02:07:40;9.90;;;5.30;;
7375;SDS011;3728;42.266;24.944;2023-09-19T02:10:08;11.30;;;4.57;;
7375;SDS011;3728;42.266;24.944;2023-09-19T02:12:38;7.60;;;4.63;;
7375;SDS011;3728;42.266;24.944;2023-09-19T02:15:06;8.77;;;4.70;;
7375;SDS011;3728;42.266;24.944;2023-09-19T02:17:36;9.57;;;5.07;;
7375;SDS011;3728;42.266;24.944;2023-09-19T02:20:05;7.40;;;4.93;;
7375;SDS011;3728;42.266;24.944;2023-09-19T02:22:36;5.93;;;4.70;;
7375;SDS011;3728;42.266;24.944;2023-09-19T02:25:05;6.83;;;4.90;;
7375;SDS011;3728;42.266;24.944;2023-09-19T02:27:35;12.43;;;5.00;;
7375;SDS011;3728;42.266;24.944;2023-09-19T02:30:04;11.87;;;5.17;;
7375;SDS011;3728;42.266;24.944;2023-09-19T02:32:33;6.50;;;4.87;;
7375;SDS011;3728;42.266;24.944;2023-09-19T02:35:06;7.10;;;4.37;;
7375;SDS011;3728;42.266;24.944;2023-09-19T02:37:38;5.70;;;4.50;;
7375;SDS011;3728;42.266;24.944;2023-09-19T02:40:06;6.17;;;4.50;;
7375;SDS011;3728;42.266;24.944;2023-09-19T02:42:46;6.70;;;4.53;;
7375;SDS011;3728;42.266;24.944;2023-09-19T02:45:16;5.47;;;4.40;;
7375;SDS011;3728;42.266;24.944;2023-09-19T02:47:45;5.90;;;4.83;;
7375;SDS011;3728;42.266;24.944;2023-09-19T02:50:15;6.23;;;4.70;;
7375;SDS011;3728;42.266;24.944;2023-09-19T02:52:44;5.50;;;4.63;;
7375;SDS011;3728;42.266;24.944;2023-09-19T02:55:17;7.77;;;4.90;;
7375;SDS011;3728;42.266;24.944;2023-09-19T02:57:50;7.47;;;5.10;;
7375;SDS011;3728;42.266;24.944;2023-09-19T03:00:21;7.03;;;5.60;;
7375;SDS011;3728;42.266;24.944;2023-09-19T03:02:52;7.43;;;5.20;;
7375;SDS011;3728;42.266;24.944;2023-09-19T03:05:22;10.50;;;5.67;;
7375;SDS011;3728;42.266;24.944;2023-09-19T03:07:51;6.67;;;5.20;;
7375;SDS011;3728;42.266;24.944;2023-09-19T03:10:20;7.30;;;5.70;;
7375;SDS011;3728;42.266;24.944;2023-09-19T03:12:50;6.93;;;5.50;;
7375;SDS011;3728;42.266;24.944;2023-09-19T03:15:18;7.13;;;5.13;;
7375;SDS011;3728;42.266;24.944;2023-09-19T03:17:49;8.57;;;6.10;;
7375;SDS011;3728;42.266;24.944;2023-09-19T03:20:23;6.63;;;5.10;;
7375;SDS011;3728;42.266;24.944;2023-09-19T03:22:52;10.17;;;5.70;;
7375;SDS011;3728;42.266;24.944;2023-09-19T03:25:21;7.30;;;5.67;;
7375;SDS011;3728;42.266;24.944;2023-09-19T03:27:50;8.43;;;5.33;;
7375;SDS011;3728;42.266;24.944;2023-09-19T03:30:19;6.53;;;5.33;;
7375;SDS011;3728;42.266;24.944;2023-09-19T03:32:48;9.63;;;5.83;;
7375;SDS011;3728;42.266;24.944;2023-09-19T03:35:21;8.00;;;5.90;;
7375;SDS011;3728;42.266;24.944;2023-09-19T03:37:49;9.43;;;6.10;;
7375;SDS011;3728;42.266;24.944;2023-09-19T03:40:19;8.63;;;5.43;;
7375;SDS011;3728;42.266;24.944;2023-09-19T03:42:49;8.27;;;5.80;;
7375;SDS011;3728;42.266;24.944;2023-09-19T03:45:17;6.20;;;5.60;;
7375;SDS011;3728;42.266;24.944;2023-09-19T03:47:48;11.50;;;5.60;;
7375;SDS011;3728;42.266;24.944;2023-09-19T03:50:19;10.23;;;6.27;;
7375;SDS011;3728;42.266;24.944;2023-09-19T03:52:47;7.33;;;5.80;;
7375;SDS011;3728;42.266;24.944;2023-09-19T03:55:14;8.83;;;5.87;;
7375;SDS011;3728;42.266;24.944;2023-09-19T03:57:42;8.43;;;5.87;;
7375;SDS011;3728;42.266;24.944;2023-09-19T04:00:17;8.33;;;5.20;;
7375;SDS011;3728;42.266;24.944;2023-09-19T04:02:48;7.73;;;5.70;;
7375;SDS011;3728;42.266;24.944;2023-09-19T04:05:18;7.17;;;5.17;;
7375;SDS011;3728;42.266;24.944;2023-09-19T04:07:47;10.33;;;5.20;;
7375;SDS011;3728;42.266;24.944;2023-09-19T04:10:15;18.47;;;6.77;;
7375;SDS011;3728;42.266;24.944;2023-09-19T04:12:53;25.57;;;9.50;;
7375;SDS011;3728;42.266;24.944;2023-09-19T04:15:22;20.37;;;7.80;;
7375;SDS011;3728;42.266;24.944;2023-09-19T04:17:52;32.00;;;8.40;;
7375;SDS011;3728;42.266;24.944;2023-09-19T04:20:20;24.47;;;7.13;;
7375;SDS011;3728;42.266;24.944;2023-09-19T04:22:51;37.53;;;8.93;;
7375;SDS011;3728;42.266;24.944;2023-09-19T04:25:19;25.90;;;7.47;;
7375;SDS011;3728;42.266;24.944;2023-09-19T04:27:47;134.60;;;17.33;;
7375;SDS011;3728;42.266;24.944;2023-09-19T04:30:15;57.07;;;9.83;;
7375;SDS011;3728;42.266;24.944;2023-09-19T04:32:43;27.20;;;8.50;;
7375;SDS011;3728;42.266;24.944;2023-09-19T04:35:11;21.60;;;8.27;;
7375;SDS011;3728;42.266;24.944;2023-09-19T04:37:39;25.07;;;9.00;;
7375;SDS011;3728;42.266;24.944;2023-09-19T04:40:08;22.10;;;8.00;;
7375;SDS011;3728;42.266;24.944;2023-09-19T04:42:40;35.97;;;8.87;;
7375;SDS011;3728;42.266;24.944;2023-09-19T04:45:08;25.80;;;8.60;;
7375;SDS011;3728;42.266;24.944;2023-09-19T04:47:37;14.67;;;7.90;;
7375;SDS011;3728;42.266;24.944;2023-09-19T04:50:09;19.67;;;7.93;;
7375;SDS011;3728;42.266;24.944;2023-09-19T04:52:41;19.57;;;8.30;;
7375;SDS011;3728;42.266;24.944;2023-09-19T04:55:12;27.83;;;8.00;;
7375;SDS011;3728;42.266;24.944;2023-09-19T04:57:44;22.90;;;8.37;;
7375;SDS011;3728;42.266;24.944;2023-09-19T05:00:14;21.83;;;8.73;;
7375;SDS011;3728;42.266;24.944;2023-09-19T05:02:51;19.07;;;8.00;;
7375;SDS011;3728;42.266;24.944;2023-09-19T05:05:25;22.90;;;8.87;;
7375;SDS011;3728;42.266;24.944;2023-09-19T05:07:53;20.40;;;8.33;;
7375;SDS011;3728;42.266;24.944;2023-09-19T05:10:22;17.67;;;7.93;;
7375;SDS011;3728;42.266;24.944;2023-09-19T05:12:52;24.60;;;8.33;;
7375;SDS011;3728;42.266;24.944;2023-09-19T05:15:23;13.07;;;8.13;;
7375;SDS011;3728;42.266;24.944;2023-09-19T05:17:51;24.00;;;9.23;;
7375;SDS011;3728;42.266;24.944;2023-09-19T05:20:24;20.17;;;7.97;;
7375;SDS011;3728;42.266;24.944;2023-09-19T05:22:57;15.13;;;8.10;;
7375;SDS011;3728;42.266;24.944;2023-09-19T05:25:30;14.07;;;8.03;;
7375;SDS011;3728;42.266;24.944;2023-09-19T05:27:59;17.27;;;8.57;;
7375;SDS011;3728;42.266;24.944;2023-09-19T05:30:30;15.77;;;7.30;;
7375;SDS011;3728;42.266;24.944;2023-09-19T05:33:00;17.07;;;8.47;;
7375;SDS011;3728;42.266;24.944;2023-09-19T05:35:28;15.60;;;7.70;;
7375;SDS011;3728;42.266;24.944;2023-09-19T05:37:57;22.73;;;7.70;;
7375;SDS011;3728;42.266;24.944;2023-09-19T05:40:26;12.67;;;7.73;;
7375;SDS011;3728;42.266;24.944;2023-09-19T05:42:54;11.60;;;7.83;;
7375;SDS011;3728;42.266;24.944;2023-09-19T05:45:21;15.20;;;7.93;;
7375;SDS011;3728;42.266;24.944;2023-09-19T05:47:50;10.43;;;6.10;;
7375;SDS011;3728;42.266;24.944;2023-09-19T05:50:22;14.80;;;5.57;;
7375;SDS011;3728;42.266;24.944;2023-09-19T05:52:52;5.90;;;5.30;;
7375;SDS011;3728;42.266;24.944;2023-09-19T05:55:25;6.23;;;5.00;;
7375;SDS011;3728;42.266;24.944;2023-09-19T05:57:55;6.30;;;5.47;;
7375;SDS011;3728;42.266;24.944;2023-09-19T06:00:23;6.47;;;5.40;;
7375;SDS011;3728;42.266;24.944;2023-09-19T06:02:54;8.63;;;5.60;;
7375;SDS011;3728;42.266;24.944;2023-09-19T06:05:27;7.13;;;4.97;;
7375;SDS011;3728;42.266;24.944;2023-09-19T06:07:58;8.20;;;4.70;;
7375;SDS011;3728;42.266;24.944;2023-09-19T06:10:27;8.30;;;4.67;;
7375;SDS011;3728;42.266;24.944;2023-09-19T06:12:55;7.23;;;4.30;;
7375;SDS011;3728;42.266;24.944;2023-09-19T06:15:28;7.17;;;4.87;;
7375;SDS011;3728;42.266;24.944;2023-09-19T06:17:56;7.13;;;4.87;;
7375;SDS011;3728;42.266;24.944;2023-09-19T06:20:26;7.83;;;5.40;;
7375;SDS011;3728;42.266;24.944;2023-09-19T06:22:54;5.73;;;4.00;;
7375;SDS011;3728;42.266;24.944;2023-09-19T06:25:22;9.57;;;4.40;;
7375;SDS011;3728;42.266;24.944;2023-09-19T06:27:50;12.00;;;4.87;;
7375;SDS011;3728;42.266;24.944;2023-09-19T06:30:24;8.40;;;4.63;;
7375;SDS011;3728;42.266;24.944;2023-09-19T06:32:56;9.30;;;4.67;;
7375;SDS011;3728;42.266;24.944;2023-09-19T06:35:26;11.93;;;5.30;;
7375;SDS011;3728;42.266;24.944;2023-09-19T06:37:56;7.33;;;4.60;;
7375;SDS011;3728;42.266;24.944;2023-09-19T06:40:25;9.27;;;4.57;;
7375;SDS011;3728;42.266;24.944;2023-09-19T06:42:55;8.73;;;4.20;;
7375;SDS011;3728;42.266;24.944;2023-09-19T06:45:23;8.50;;;4.40;;
7375;SDS011;3728;42.266;24.944;2023-09-19T06:47:54;9.07;;;4.70;;
7375;SDS011;3728;42.266;24.944;2023-09-19T06:50:25;4.83;;;3.93;;
7375;SDS011;3728;42.266;24.944;2023-09-19T06:52:55;9.40;;;4.57;;
7375;SDS011;3728;42.266;24.944;2023-09-19T06:55:29;6.20;;;4.37;;
7375;SDS011;3728;42.266;24.944;2023-09-19T06:58:00;7.40;;;3.70;;
7375;SDS011;3728;42.266;24.944;2023-09-19T07:00:28;4.73;;;3.83;;
7375;SDS011;3728;42.266;24.944;2023-09-19T07:02:59;5.83;;;4.40;;
7375;SDS011;3728;42.266;24.944;2023-09-19T07:05:32;8.90;;;4.73;;
7375;SDS011;3728;42.266;24.944;2023-09-19T07:08:07;5.33;;;3.80;;
7375;SDS011;3728;42.266;24.944;2023-09-19T07:10:40;5.13;;;4.17;;
7375;SDS011;3728;42.266;24.944;2023-09-19T07:13:16;7.50;;;4.03;;
7375;SDS011;3728;42.266;24.944;2023-09-19T07:15:44;6.93;;;3.90;;
7375;SDS011;3728;42.266;24.944;2023-09-19T07:18:14;11.45;;;4.43;;
7375;SDS011;3728;42.266;24.944;2023-09-19T07:20:43;8.18;;;3.95;;
7375;SDS011;3728;42.266;24.944;2023-09-19T07:23:16;8.57;;;3.90;;
7375;SDS011;3728;42.266;24.944;2023-09-19T07:25:49;8.63;;;4.10;;
7375;SDS011;3728;42.266;24.944;2023-09-19T07:28:17;6.72;;;3.50;;
7375;SDS011;3728;42.266;24.944;2023-09-19T07:30:45;6.60;;;3.92;;
7375;SDS011;3728;42.266;24.944;2023-09-19T07:33:13;5.93;;;3.75;;
7375;SDS011;3728;42.266;24.944;2023-09-19T07:35:44;6.72;;;3.65;;
7375;SDS011;3728;42.266;24.944;2023-09-19T07:38:14;6.07;;;3.88;;
7375;SDS011;3728;42.266;24.944;2023-09-19T07:40:42;6.15;;;3.17;;
7375;SDS011;3728;42.266;24.944;2023-09-19T07:43:10;9.13;;;4.45;;
7375;SDS011;3728;42.266;24.944;2023-09-19T07:45:38;4.30;;;3.42;;
7375;SDS011;3728;42.266;24.944;2023-09-19T07:48:06;6.03;;;3.40;;
7375;SDS011;3728;42.266;24.944;2023-09-19T07:50:41;5.80;;;3.70;;
7375;SDS011;3728;42.266;24.944;2023-09-19T07:53:10;3.97;;;3.53;;
7375;SDS011;3728;42.266;24.944;2023-09-19T07:55:45;5.55;;;3.83;;
7375;SDS011;3728;42.266;24.944;2023-09-19T07:58:15;3.70;;;3.38;;
7375;SDS011;3728;42.266;24.944;2023-09-19T08:00:42;6.47;;;3.30;;
7375;SDS011;3728;42.266;24.944;2023-09-19T08:03:10;8.00;;;3.33;;
7375;SDS011;3728;42.266;24.944;2023-09-19T08:05:46;4.68;;;3.30;;
7375;SDS011;3728;42.266;24.944;2023-09-19T08:08:15;4.40;;;3.47;;
7375;SDS011;3728;42.266;24.944;2023-09-19T08:10:43;3.30;;;3.00;;
7375;SDS011;3728;42.266;24.944;2023-09-19T08:13:13;3.40;;;2.85;;
7375;SDS011;3728;42.266;24.944;2023-09-19T08:15:44;3.22;;;2.92;;
7375;SDS011;3728;42.266;24.944;2023-09-19T08:18:13;2.95;;;2.55;;
7375;SDS011;3728;42.266;24.944;2023-09-19T08:20:43;4.78;;;2.90;;
7375;SDS011;3728;42.266;24.944;2023-09-19T08:23:17;4.75;;;3.20;;
7375;SDS011;3728;42.266;24.944;2023-09-19T08:25:49;4.80;;;2.67;;
7375;SDS011;3728;42.266;24.944;2023-09-19T08:28:18;3.08;;;2.72;;
7375;SDS011;3728;42.266;24.944;2023-09-19T08:30:51;3.17;;;2.50;;
7375;SDS011;3728;42.266;24.944;2023-09-19T08:33:21;3.08;;;2.78;;
7375;SDS011;3728;42.266;24.944;2023-09-19T08:35:50;2.55;;;2.35;;
7375;SDS011;3728;42.266;24.944;2023-09-19T08:38:18;5.03;;;2.47;;
7375;SDS011;3728;42.266;24.944;2023-09-19T08:40:46;3.00;;;2.67;;
7375;SDS011;3728;42.266;24.944;2023-09-19T08:43:14;3.03;;;2.28;;
7375;SDS011;3728;42.266;24.944;2023-09-19T08:45:42;5.75;;;2.63;;
7375;SDS011;3728;42.266;24.944;2023-09-19T08:48:23;3.78;;;2.42;;
7375;SDS011;3728;42.266;24.944;2023-09-19T08:50:56;3.35;;;1.85;;
7375;SDS011;3728;42.266;24.944;2023-09-19T08:54:08;2.85;;;2.50;;
7375;SDS011;3728;42.266;24.944;2023-09-19T08:56:49;8.27;;;2.70;;
7375;SDS011;3728;42.266;24.944;2023-09-19T08:59:21;4.15;;;2.45;;
7375;SDS011;3728;42.266;24.944;2023-09-19T09:01:53;2.53;;;2.10;;
7375;SDS011;3728;42.266;24.944;2023-09-19T09:04:23;2.53;;;2.25;;
7375;SDS011;3728;42.266;24.944;2023-09-19T09:06:53;4.15;;;2.42;;
7375;SDS011;3728;42.266;24.944;2023-09-19T09:09:24;4.10;;;2.40;;
7375;SDS011;3728;42.266;24.944;2023-09-19T09:11:52;2.97;;;2.03;;
7375;SDS011;3728;42.266;24.944;2023-09-19T09:14:23;7.68;;;2.20;;
7375;SDS011;3728;42.266;24.944;2023-09-19T09:16:51;4.45;;;2.15;;
7375;SDS011;3728;42.266;24.944;2023-09-19T09:19:23;4.22;;;2.65;;
7375;SDS011;3728;42.266;24.944;2023-09-19T09:21:51;5.93;;;2.83;;
7375;SDS011;3728;42.266;24.944;2023-09-19T09:24:28;2.53;;;2.33;;
7375;SDS011;3728;42.266;24.944;2023-09-19T09:27:03;4.95;;;2.63;;
7375;SDS011;3728;42.266;24.944;2023-09-19T09:29:46;3.33;;;2.72;;
7375;SDS011;3728;42.266;24.944;2023-09-19T09:32:27;4.43;;;2.80;;
7375;SDS011;3728;42.266;24.944;2023-09-19T09:35:01;6.07;;;2.67;;
7375;SDS011;3728;42.266;24.944;2023-09-19T09:37:31;3.72;;;2.33;;
7375;SDS011;3728;42.266;24.944;2023-09-19T09:40:02;5.03;;;2.50;;
7375;SDS011;3728;42.266;24.944;2023-09-19T09:42:43;3.58;;;2.70;;
7375;SDS011;3728;42.266;24.944;2023-09-19T09:45:17;3.38;;;2.53;;
7375;SDS011;3728;42.266;24.944;2023-09-19T09:48:13;5.75;;;2.95;;
7375;SDS011;3728;42.266;24.944;2023-09-19T09:50:48;4.05;;;2.53;;
7375;SDS011;3728;42.266;24.944;2023-09-19T09:53:24;4.63;;;2.33;;
7375;SDS011;3728;42.266;24.944;2023-09-19T09:55:59;4.25;;;2.42;;
7375;SDS011;3728;42.266;24.944;2023-09-19T09:58:36;7.40;;;2.63;;
7375;SDS011;3728;42.266;24.944;2023-09-19T10:01:21;2.67;;;2.47;;
7375;SDS011;3728;42.266;24.944;2023-09-19T10:03:56;3.85;;;2.38;;
7375;SDS011;3728;42.266;24.944;2023-09-19T10:06:39;2.67;;;2.47;;
7375;SDS011;3728;42.266;24.944;2023-09-19T10:09:14;3.30;;;2.40;;
7375;SDS011;3728;42.266;24.944;2023-09-19T10:11:47;2.70;;;2.40;;
7375;SDS011;3728;42.266;24.944;2023-09-19T10:14:27;5.38;;;2.75;;
7375;SDS011;3728;42.266;24.944;2023-09-19T10:17:05;4.63;;;2.30;;
7375;SDS011;3728;42.266;24.944;2023-09-19T10:19:37;9.85;;;3.05;;
7375;SDS011;3728;42.266;24.944;2023-09-19T10:22:15;3.78;;;2.40;;
7375;SDS011;3728;42.266;24.944;2023-09-19T10:24:52;4.00;;;2.60;;
7375;SDS011;3728;42.266;24.944;2023-09-19T10:27:29;6.68;;;2.42;;
7375;SDS011;3728;42.266;24.944;2023-09-19T10:30:07;3.40;;;2.40;;
7375;SDS011;3728;42.266;24.944;2023-09-19T10:32:38;4.50;;;2.30;;
7375;SDS011;3728;42.266;24.944;2023-09-19T10:35:08;3.50;;;2.42;;
7375;SDS011;3728;42.266;24.944;2023-09-19T10:37:39;4.40;;;2.53;;
7375;SDS011;3728;42.266;24.944;2023-09-19T10:40:12;5.75;;;2.42;;
7375;SDS011;3728;42.266;24.944;2023-09-19T10:42:42;8.45;;;2.50;;
7375;SDS011;3728;42.266;24.944;2023-09-19T10:45:13;4.47;;;2.53;;
7375;SDS011;3728;42.266;24.944;2023-09-19T10:47:45;3.50;;;2.28;;
7375;SDS011;3728;42.266;24.944;2023-09-19T10:50:19;2.95;;;2.45;;
7375;SDS011;3728;42.266;24.944;2023-09-19T10:52:49;7.70;;;2.60;;
7375;SDS011;3728;42.266;24.944;2023-09-19T10:55:25;5.00;;;2.45;;
7375;SDS011;3728;42.266;24.944;2023-09-19T10:57:55;4.70;;;2.50;;
7375;SDS011;3728;42.266;24.944;2023-09-19T11:00:24;2.88;;;2.20;;
7375;SDS011;3728;42.266;24.944;2023-09-19T11:06:00;2.90;;;2.47;;
7375;SDS011;3728;42.266;24.944;2023-09-19T11:11:41;6.07;;;2.35;;
7375;SDS011;3728;42.266;24.944;2023-09-19T11:17:30;8.57;;;2.75;;
7375;SDS011;3728;42.266;24.944;2023-09-19T11:30:36;2.63;;;2.28;;
7375;SDS011;3728;42.266;24.944;2023-09-19T11:33:18;10.05;;;3.15;;
7375;SDS011;3728;42.266;24.944;2023-09-19T11:46:31;38.97;;;5.55;;
7375;SDS011;3728;42.266;24.944;2023-09-19T11:49:05;5.85;;;2.63;;
7375;SDS011;3728;42.266;24.944;2023-09-19T11:51:42;3.08;;;2.08;;
7375;SDS011;3728;42.266;24.944;2023-09-19T11:54:12;28.80;;;5.20;;
7375;SDS011;3728;42.266;24.944;2023-09-19T11:56:51;23.75;;;3.72;;
7375;SDS011;3728;42.266;24.944;2023-09-19T11:59:25;13.30;;;2.72;;
7375;SDS011;3728;42.266;24.944;2023-09-19T12:01:58;10.27;;;2.58;;
7375;SDS011;3728;42.266;24.944;2023-09-19T12:04:35;44.60;;;5.85;;
7375;SDS011;3728;42.266;24.944;2023-09-19T12:07:11;13.15;;;2.60;;
7375;SDS011;3728;42.266;24.944;2023-09-19T12:09:46;3.28;;;2.30;;
7375;SDS011;3728;42.266;24.944;2023-09-19T12:12:20;2.42;;;2.00;;
7375;SDS011;3728;42.266;24.944;2023-09-19T12:14:54;6.68;;;2.50;;
7375;SDS011;3728;42.266;24.944;2023-09-19T12:17:39;4.60;;;2.22;;
7375;SDS011;3728;42.266;24.944;2023-09-19T12:20:09;6.95;;;2.30;;
7375;SDS011;3728;42.266;24.944;2023-09-19T12:22:41;2.35;;;2.15;;
7375;SDS011;3728;42.266;24.944;2023-09-19T12:25:11;4.90;;;2.30;;
7375;SDS011;3728;42.266;24.944;2023-09-19T12:27:44;2.58;;;2.08;;
7375;SDS011;3728;42.266;24.944;2023-09-19T12:30:14;5.25;;;2.47;;
7375;SDS011;3728;42.266;24.944;2023-09-19T12:32:53;3.00;;;2.10;;
7375;SDS011;3728;42.266;24.944;2023-09-19T12:35:29;4.63;;;2.08;;
7375;SDS011;3728;42.266;24.944;2023-09-19T12:38:02;5.38;;;2.22;;
7375;SDS011;3728;42.266;24.944;2023-09-19T12:40:31;5.88;;;2.28;;
7375;SDS011;3728;42.266;24.944;2023-09-19T12:43:02;2.35;;;2.05;;
7375;SDS011;3728;42.266;24.944;2023-09-19T12:45:32;3.10;;;2.30;;
7375;SDS011;3728;42.266;24.944;2023-09-19T12:56:10;6.35;;;2.13;;
7375;SDS011;3728;42.266;24.944;2023-09-19T12:58:52;2.95;;;1.95;;
7375;SDS011;3728;42.266;24.944;2023-09-19T13:01:22;4.05;;;2.30;;
7375;SDS011;3728;42.266;24.944;2023-09-19T13:06:47;4.38;;;2.00;;
7375;SDS011;3728;42.266;24.944;2023-09-19T13:09:18;6.07;;;2.25;;
7375;SDS011;3728;42.266;24.944;2023-09-19T13:11:48;3.22;;;2.05;;
7375;SDS011;3728;42.266;24.944;2023-09-19T13:14:18;5.78;;;2.03;;
7375;SDS011;3728;42.266;24.944;2023-09-19T13:16:55;2.33;;;1.75;;
7375;SDS011;3728;42.266;24.944;2023-09-19T13:19:37;4.40;;;2.25;;
7375;SDS011;3728;42.266;24.944;2023-09-19T13:25:16;5.95;;;2.08;;
7375;SDS011;3728;42.266;24.944;2023-09-19T13:27:47;6.13;;;1.75;;
7375;SDS011;3728;42.266;24.944;2023-09-19T13:30:21;6.68;;;2.10;;
7375;SDS011;3728;42.266;24.944;2023-09-19T13:33:10;12.00;;;2.20;;
7375;SDS011;3728;42.266;24.944;2023-09-19T13:35:43;4.32;;;2.00;;
7375;SDS011;3728;42.266;24.944;2023-09-19T13:38:11;2.45;;;1.80;;
7375;SDS011;3728;42.266;24.944;2023-09-19T13:40:39;5.35;;;2.33;;
7375;SDS011;3728;42.266;24.944;2023-09-19T13:43:10;6.78;;;2.03;;
7375;SDS011;3728;42.266;24.944;2023-09-19T13:45:38;2.08;;;1.88;;
7375;SDS011;3728;42.266;24.944;2023-09-19T13:48:09;3.30;;;2.03;;
7375;SDS011;3728;42.266;24.944;2023-09-19T13:50:43;4.57;;;2.10;;
7375;SDS011;3728;42.266;24.944;2023-09-19T13:53:12;4.68;;;2.20;;
7375;SDS011;3728;42.266;24.944;2023-09-19T13:55:40;3.90;;;1.92;;
7375;SDS011;3728;42.266;24.944;2023-09-19T13:58:08;2.35;;;1.85;;
7375;SDS011;3728;42.266;24.944;2023-09-19T14:00:37;7.45;;;2.20;;
7375;SDS011;3728;42.266;24.944;2023-09-19T14:03:06;4.15;;;2.03;;
7375;SDS011;3728;42.266;24.944;2023-09-19T14:05:35;2.65;;;2.00;;
7375;SDS011;3728;42.266;24.944;2023-09-19T14:08:02;2.55;;;1.75;;
7375;SDS011;3728;42.266;24.944;2023-09-19T14:10:31;5.15;;;1.90;;
7375;SDS011;3728;42.266;24.944;2023-09-19T14:12:59;11.25;;;2.20;;
7375;SDS011;3728;42.266;24.944;2023-09-19T14:15:28;35.42;;;5.75;;
7375;SDS011;3728;42.266;24.944;2023-09-19T14:17:57;5.20;;;1.95;;
7375;SDS011;3728;42.266;24.944;2023-09-19T14:20:26;4.50;;;1.90;;
7375;SDS011;3728;42.266;24.944;2023-09-19T14:22:57;3.90;;;1.75;;
7375;SDS011;3728;42.266;24.944;2023-09-19T14:25:27;6.70;;;2.10;;
7375;SDS011;3728;42.266;24.944;2023-09-19T14:27:57;5.95;;;2.10;;
7375;SDS011;3728;42.266;24.944;2023-09-19T14:30:25;3.03;;;2.20;;
7375;SDS011;3728;42.266;24.944;2023-09-19T14:32:55;4.78;;;2.10;;
7375;SDS011;3728;42.266;24.944;2023-09-19T14:35:25;2.70;;;2.00;;
7375;SDS011;3728;42.266;24.944;2023-09-19T14:37:52;4.05;;;2.08;;
7375;SDS011;3728;42.266;24.944;2023-09-19T14:40:20;2.33;;;1.90;;
7375;SDS011;3728;42.266;24.944;2023-09-19T14:42:49;3.40;;;1.83;;
7375;SDS011;3728;42.266;24.944;2023-09-19T14:45:18;2.42;;;1.83;;
7375;SDS011;3728;42.266;24.944;2023-09-19T14:47:47;5.38;;;1.92;;
7375;SDS011;3728;42.266;24.944;2023-09-19T14:50:19;23.13;;;3.55;;
7375;SDS011;3728;42.266;24.944;2023-09-19T14:52:49;5.30;;;2.13;;
7375;SDS011;3728;42.266;24.944;2023-09-19T14:55:18;5.35;;;2.30;;
7375;SDS011;3728;42.266;24.944;2023-09-19T14:57:48;16.83;;;3.03;;
7375;SDS011;3728;42.266;24.944;2023-09-19T15:00:18;5.68;;;2.13;;
7375;SDS011;3728;42.266;24.944;2023-09-19T15:02:48;4.80;;;2.00;;
7375;SDS011;3728;42.266;24.944;2023-09-19T15:05:17;4.22;;;2.20;;
7375;SDS011;3728;42.266;24.944;2023-09-19T15:07:46;31.70;;;5.57;;
7375;SDS011;3728;42.266;24.944;2023-09-19T15:10:17;6.68;;;2.67;;
7375;SDS011;3728;42.266;24.944;2023-09-19T15:12:46;6.10;;;2.08;;
7375;SDS011;3728;42.266;24.944;2023-09-19T15:15:14;5.60;;;2.22;;
7375;SDS011;3728;42.266;24.944;2023-09-19T15:17:42;4.75;;;2.20;;
7375;SDS011;3728;42.266;24.944;2023-09-19T15:20:11;6.78;;;2.47;;
7375;SDS011;3728;42.266;24.944;2023-09-19T15:22:41;9.05;;;2.47;;
7375;SDS011;3728;42.266;24.944;2023-09-19T15:25:10;5.25;;;2.45;;
7375;SDS011;3728;42.266;24.944;2023-09-19T15:27:39;3.60;;;2.25;;
7375;SDS011;3728;42.266;24.944;2023-09-19T15:30:08;6.32;;;2.40;;
7375;SDS011;3728;42.266;24.944;2023-09-19T15:32:41;4.55;;;2.65;;
7375;SDS011;3728;42.266;24.944;2023-09-19T15:35:10;7.55;;;2.90;;
7375;SDS011;3728;42.266;24.944;2023-09-19T15:37:40;13.10;;;3.22;;
7375;SDS011;3728;42.266;24.944;2023-09-19T15:40:08;8.52;;;2.75;;
7375;SDS011;3728;42.266;24.944;2023-09-19T15:42:42;28.92;;;3.67;;
7375;SDS011;3728;42.266;24.944;2023-09-19T15:45:10;9.70;;;2.65;;
7375;SDS011;3728;42.266;24.944;2023-09-19T15:47:38;8.23;;;2.13;;
7375;SDS011;3728;42.266;24.944;2023-09-19T15:50:06;4.88;;;2.55;;
7375;SDS011;3728;42.266;24.944;2023-09-19T15:52:44;10.35;;;2.30;;
7375;SDS011;3728;42.266;24.944;2023-09-19T15:55:12;5.32;;;2.60;;
7375;SDS011;3728;42.266;24.944;2023-09-19T15:57:43;8.07;;;2.75;;
7375;SDS011;3728;42.266;24.944;2023-09-19T16:00:12;8.63;;;2.85;;
7375;SDS011;3728;42.266;24.944;2023-09-19T16:02:46;12.73;;;3.15;;
7375;SDS011;3728;42.266;24.944;2023-09-19T16:05:18;6.85;;;2.75;;
7375;SDS011;3728;42.266;24.944;2023-09-19T16:07:49;5.07;;;2.45;;
7375;SDS011;3728;42.266;24.944;2023-09-19T16:10:18;11.90;;;2.97;;
7375;SDS011;3728;42.266;24.944;2023-09-19T16:12:50;6.10;;;2.33;;
7375;SDS011;3728;42.266;24.944;2023-09-19T16:15:18;8.70;;;2.35;;
7375;SDS011;3728;42.266;24.944;2023-09-19T16:17:50;7.28;;;2.75;;
7375;SDS011;3728;42.266;24.944;2023-09-19T16:20:21;8.40;;;2.30;;
7375;SDS011;3728;42.266;24.944;2023-09-19T16:22:52;22.38;;;3.50;;